CW6666 Weather Reports


Display with metric or nautical units.
time (UTC)temp
F
wind
direction
speed
MPH
gust
MPH
rain 1hr
in
rain 24hr
in
rain mn
in
humidity
%
barometer
mb
20170922204535 85 51 12.0 17.0 0.00 0.50 0.00 87 1007.9
20170922204035 84 45 16.0 17.0 0.00 0.53 0.00 86 1007.9
20170922203535 84 57 13.0 16.0 0.00 0.53 0.00 87 1007.9
20170922203035 84 61 13.0 18.0 0.00 0.53 0.00 86 1007.7
20170922202535 84 46 15.0 18.0 0.00 0.53 0.00 86 1007.7
20170922202035 84 47 14.0 17.0 0.00 0.53 0.00 86 1007.7
20170922201535 83 55 12.0 16.0 0.00 0.53 0.00 88 1007.7
20170922201035 83 51 12.0 17.0 0.00 0.53 0.00 89 1007.7
20170922200535 83 61 15.0 17.0 0.00 0.53 0.00 91 1007.7
20170922200035 82 337 0.0 2.0 0.00 0.53 0.00 89 1007.4
20170922195535 83 337 0.0 3.0 0.00 0.53 0.00 89 1007.4
20170922195035 83 337 1.0 10.0 0.00 0.53 0.00 88 1007.4
20170922194535 83 25 0.0 11.0 0.00 0.53 0.00 89 1007.5
20170922194035 83 26 3.0 12.0 0.00 0.53 0.00 89 1007.5
20170922193535 83 26 11.0 14.0 0.00 0.53 0.00 89 1007.5
20170922193035 83 30 9.0 15.0 0.00 0.53 0.00 89 1007.2
20170922192535 83 42 10.0 16.0 0.00 0.53 0.00 89 1007.2
20170922192035 83 38 13.0 16.0 0.00 0.53 0.00 89 1007.2
20170922191535 83 51 14.0 20.0 0.00 0.53 0.00 89 1007.1
20170922191035 83 38 16.0 21.0 0.00 0.53 0.00 88 1007.1
20170922190535 84 42 19.0 21.0 0.00 0.53 0.00 88 1007.1
20170922190035 84 67 13.0 15.0 0.00 0.53 0.00 89 1007.2
20170922185535 84 60 13.0 15.0 0.00 0.53 0.00 89 1007.2
20170922185035 84 57 12.0 16.0 0.00 0.53 0.00 90 1007.2
20170922184536 84 63 12.0 16.0 0.00 0.53 0.00 89 1007.2
20170922184035 84 51 12.0 16.0 0.00 0.53 0.00 90 1007.2
20170922183535 83 27 5.0 11.0 0.00 0.53 0.00 89 1007.2
20170922183035 83 31 9.0 11.0 0.00 0.53 0.00 89 1007.2
20170922182535 83 24 5.0 10.0 0.00 0.53 0.00 88 1007.2
20170922182035 83 30 4.0 12.0 0.00 0.53 0.00 88 1007.2
20170922181535 83 26 4.0 15.0 0.00 0.53 0.53 89 1007.2
20170922181035 83 32 9.0 16.0 0.00 0.53 0.53 88 1007.2
20170922180535 84 40 13.0 19.0 0.00 0.53 0.53 88 1007.2
20170922180035 84 38 13.0 19.0 0.00 0.53 0.53 88 1007.2
20170922175535 85 34 16.0 19.0 0.00 0.53 0.53 86 1007.2
20170922175035 85 53 15.0 17.0 0.00 0.53 0.53 86 1007.2
20170922174535 85 44 14.0 16.0 0.00 0.53 0.53 87 1007.2
20170922174035 85 42 14.0 16.0 0.00 0.53 0.53 87 1007.2
20170922173535 85 38 16.0 16.0 0.00 0.53 0.53 88 1007.2
20170922173035 84 51 13.0 16.0 0.00 0.53 0.53 87 1007.2
20170922172535 84 53 11.0 14.0 0.00 0.53 0.53 90 1007.2
20170922172035 83 41 13.0 14.0 0.00 0.53 0.53 92 1007.2
20170922171535 81 55 12.0 14.0 0.00 0.53 0.53 95 1007.3
20170922171035 80 40 11.0 13.0 0.00 0.53 0.53 97 1007.3
20170922170535 79 277 1.0 3.0 0.00 0.53 0.53 95 1007.3
20170922170035 79 306 0.0 0.0 0.00 0.53 0.53 95 1007.6
20170922165535 79 306 0.0 0.0 0.00 0.53 0.53 95 1007.6
20170922165035 79 306 0.0 0.0 0.00 0.53 0.53 95 1007.6
20170922164535 78 306 0.0 0.0 0.00 0.53 0.53 95 1007.7
20170922164035 78 306 0.0 0.0 0.00 0.53 0.53 95 1007.7
20170922163535 79 306 0.0 1.0 0.00 0.53 0.53 94 1007.7
20170922163035 79 306 0.0 1.0 0.00 0.53 0.53 94 1007.7
20170922162535 79 306 0.0 0.0 0.00 0.53 0.53 94 1007.7
20170922162035 79 306 0.0 0.0 0.00 0.53 0.53 94 1007.7
20170922161535 79 306 0.0 0.0 0.00 0.53 0.53 94 1007.7
20170922161035 79 306 0.0 0.0 0.00 0.53 0.53 93 1007.7
20170922160535 79 306 0.0 0.0 0.00 0.53 0.53 93 1007.7
20170922160035 79 306 0.0 0.0 0.00 0.53 0.53 93 1007.9
20170922155535 80 306 0.0 0.0 0.00 0.54 0.53 92 1007.9
20170922155035 80 306 0.0 1.0 0.00 0.54 0.53 92 1007.9
20170922154535 80 306 0.0 1.0 0.00 0.54 0.53 91 1008.1
20170922154035 81 306 0.0 6.0 0.00 0.55 0.53 90 1008.1
20170922153535 82 306 0.0 6.0 0.07 0.55 0.53 90 1008.1
20170922153035 82 305 1.0 7.0 0.17 0.55 0.53 90 1008.2
20170922152535 82 30 4.0 9.0 0.17 0.55 0.53 90 1008.2
20170922152035 82 29 7.0 9.0 0.17 0.55 0.53 91 1008.2
20170922151535 82 16 3.0 10.0 0.17 0.55 0.53 91 1008.2
20170922151035 81 37 5.0 11.0 0.17 0.55 0.53 92 1008.2
20170922150535 81 40 9.0 12.0 0.17 0.55 0.53 92 1008.2
20170922150035 81 44 9.0 13.0 0.17 0.55 0.53 92 1008.6
20170922145535 81 33 11.0 14.0 0.17 0.55 0.53 92 1008.6
20170922145035 81 36 11.0 14.0 0.17 0.55 0.53 93 1008.6
20170922144535 81 31 10.0 14.0 0.17 0.55 0.53 94 1008.9
20170922144035 81 23 9.0 22.0 0.17 0.55 0.53 92 1008.9
20170922143535 81 43 13.0 22.0 0.10 0.48 0.46 91 1008.9
20170922143035 82 306 1.0 4.0 0.00 0.38 0.36 90 1008.7
20170922142535 82 300 2.0 4.0 0.00 0.38 0.36 89 1008.7
20170922142035 83 297 3.0 4.0 0.00 0.38 0.36 88 1008.7
20170922141535 83 283 1.0 4.0 0.00 0.38 0.36 87 1008.9
20170922141035 84 331 2.0 15.0 0.00 0.38 0.36 86 1008.9
20170922140535 85 346 0.0 16.0 0.00 0.38 0.36 87 1008.9
20170922140035 85 27 11.0 16.0 0.00 0.38 0.36 86 1009.1
20170922135535 85 30 10.0 16.0 0.00 0.39 0.36 86 1009.1
20170922135035 85 32 11.0 16.0 0.00 0.39 0.36 87 1009.1
20170922134535 85 49 13.0 14.0 0.00 0.39 0.36 87 1009.2
20170922134035 85 43 11.0 14.0 0.00 0.39 0.36 87 1009.2
20170922133535 85 42 11.0 14.0 0.00 0.39 0.36 87 1009.2
20170922133035 85 30 10.0 16.0 0.00 0.39 0.36 85 1009.4
20170922132535 85 33 12.0 16.0 0.00 0.39 0.36 86 1009.4
20170922132035 85 35 14.0 18.0 0.00 0.39 0.36 86 1009.4
20170922131535 85 36 16.0 18.0 0.00 0.39 0.36 86 1009.8
20170922131035 85 46 13.0 17.0 0.00 0.39 0.36 86 1009.8
20170922130535 85 34 14.0 17.0 0.00 0.39 0.36 87 1009.8
20170922130035 84 36 11.0 17.0 0.00 0.39 0.36 87 1009.5
20170922125535 84 39 14.0 16.0 0.00 0.39 0.36 89 1009.5
20170922125035 83 29 12.0 15.0 0.00 0.39 0.36 91 1009.5
20170922124535 83 306 0.0 5.0 0.01 0.39 0.36 89 1009.5
20170922124035 83 308 0.0 13.0 0.06 0.39 0.36 88 1009.5
20170922123535 84 317 0.0 15.0 0.06 0.39 0.36 87 1009.5
20170922123035 85 38 12.0 17.0 0.06 0.39 0.36 88 1009.4
20170922122535 84 40 13.0 17.0 0.06 0.39 0.36 88 1009.4
20170922122035 84 39 16.0 17.0 0.06 0.39 0.36 90 1009.4
20170922121535 83 35 14.0 16.0 0.06 0.39 0.36 93 1009.3
20170922121035 82 47 14.0 15.0 0.06 0.39 0.36 95 1009.3
20170922120535 81 360 0.0 1.0 0.06 0.39 0.36 94 1009.3
20170922120035 81 327 0.0 1.0 0.06 0.39 0.36 94 1009.3
20170922115535 81 327 0.0 2.0 0.06 0.39 0.36 94 1009.3
20170922115035 81 296 0.0 6.0 0.06 0.39 0.36 93 1009.3
20170922114535 81 296 1.0 6.0 0.05 0.38 0.35 93 1009.3
20170922114035 81 299 1.0 3.0 0.00 0.33 0.30 93 1009.3
20170922113535 81 302 0.0 3.0 0.00 0.33 0.30 94 1009.3
20170922113035 81 306 1.0 4.0 0.00 0.33 0.30 94 1009.2
20170922112535 81 300 3.0 4.0 0.00 0.33 0.30 94 1009.2
20170922112035 81 306 2.0 4.0 0.00 0.33 0.30 94 1009.2
20170922111535 80 294 2.0 4.0 0.00 0.33 0.30 95 1009.2
20170922111035 80 290 2.0 4.0 0.00 0.33 0.30 95 1009.2
20170922110535 80 292 2.0 4.0 0.00 0.33 0.30 95 1009.2
20170922110035 80 292 2.0 3.0 0.00 0.33 0.30 95 1009.1
20170922105535 79 311 0.0 3.0 0.00 0.33 0.30 95 1009.1
20170922105035 79 296 3.0 3.0 0.00 0.33 0.30 95 1009.1
20170922104535 79 299 0.0 0.0 0.00 0.33 0.30 95 1008.9
20170922104035 79 299 0.0 0.0 0.00 0.33 0.30 95 1008.9
20170922103535 79 299 0.0 4.0 0.00 0.33 0.30 95 1008.9
20170922103035 79 299 0.0 4.0 0.00 0.33 0.30 95 1008.7
20170922102535 79 302 0.0 2.0 0.00 0.33 0.30 95 1008.7
20170922102035 79 302 0.0 1.0 0.00 0.33 0.30 95 1008.7
20170922101535 79 302 0.0 1.0 0.00 0.33 0.30 95 1008.5
20170922101035 79 302 0.0 2.0 0.00 0.33 0.30 95 1008.5
20170922100535 79 303 0.0 3.0 0.00 0.33 0.30 95 1008.5
20170922100035 79 308 0.0 3.0 0.00 0.33 0.30 95 1008.3
20170922095535 78 308 1.0 1.0 0.00 0.33 0.30 95 1008.3
20170922095035 78 309 0.0 1.0 0.00 0.33 0.30 94 1008.3
20170922094535 78 309 0.0 0.0 0.00 0.33 0.30 94 1008.3
20170922094035 78 309 0.0 0.0 0.00 0.33 0.30 94 1008.3
20170922093535 78 309 0.0 1.0 0.00 0.33 0.30 94 1008.3
20170922093035 78 309 0.0 1.0 0.00 0.33 0.30 94 1008.3
20170922092535 78 309 0.0 1.0 0.00 0.33 0.30 94 1008.3
20170922092035 78 309 0.0 1.0 0.00 0.33 0.30 93 1008.3
20170922091535 78 309 0.0 1.0 0.00 0.33 0.30 93 1008.2
20170922091035 78 309 0.0 1.0 0.00 0.33 0.30 93 1008.2
20170922090535 78 309 0.0 1.0 0.00 0.33 0.30 93 1008.2
20170922090035 79 309 0.0 0.0 0.00 0.33 0.30 92 1008.1
20170922085535 79 309 0.0 0.0 0.04 0.33 0.30 92 1008.1
20170922085035 79 309 0.0 0.0 0.07 0.33 0.30 92 1008.1
20170922084535 79 309 0.0 0.0 0.07 0.33 0.30 92 1008.0
20170922084035 79 309 0.0 0.0 0.07 0.33 0.30 91 1008.0
20170922083535 80 309 0.0 0.0 0.07 0.33 0.30 91 1008.0
20170922083035 80 309 0.0 1.0 0.07 0.33 0.30 91 1008.0
20170922082535 80 309 0.0 3.0 0.07 0.33 0.30 90 1008.0
20170922082035 80 309 0.0 4.0 0.07 0.33 0.30 89 1008.0
20170922081535 81 292 1.0 4.0 0.07 0.33 0.30 89 1007.7
20170922081035 81 312 2.0 8.0 0.07 0.33 0.30 89 1007.7
20170922080535 82 330 2.0 19.0 0.07 0.33 0.30 90 1007.8
20170922080035 82 15 7.0 19.0 0.07 0.33 0.30 89 1007.8
20170922075535 83 5 3.0 4.0 0.03 0.29 0.26 89 1007.8
20170922075035 83 296 1.0 4.0 0.00 0.26 0.23 89 1007.8
20170922074535 83 310 0.0 4.0 0.00 0.26 0.23 88 1007.8
20170922074035 83 292 2.0 3.0 0.00 0.26 0.23 88 1007.8
20170922073535 83 292 0.0 6.0 0.00 0.26 0.23 88 1007.8
20170922073035 83 292 2.0 9.0 0.00 0.26 0.23 88 1007.6
20170922072535 83 294 2.0 9.0 0.00 0.26 0.23 88 1007.6
20170922072035 82 297 6.0 7.0 0.00 0.26 0.23 88 1007.6
20170922071535 82 290 2.0 5.0 0.00 0.26 0.23 88 1007.7
20170922071035 82 333 0.0 10.0 0.00 0.26 0.23 89 1007.7
20170922070535 83 295 2.0 10.0 0.00 0.26 0.23 89 1007.7
20170922070035 83 339 1.0 5.0 0.00 0.26 0.23 90 1007.7
20170922065535 83 343 0.0 6.0 0.00 0.26 0.23 90 1007.7
20170922065035 83 312 4.0 6.0 0.00 0.26 0.23 90 1007.7
20170922064535 83 296 3.0 5.0 0.00 0.26 0.23 90 1007.6
20170922064035 83 313 2.0 3.0 0.00 0.26 0.23 90 1007.6
20170922063535 83 313 0.0 1.0 0.00 0.26 0.23 90 1007.6
20170922063035 83 313 0.0 1.0 0.00 0.26 0.23 90 1007.7
20170922062535 83 313 0.0 4.0 0.00 0.26 0.23 90 1007.7
20170922062035 83 313 0.0 4.0 0.00 0.26 0.23 90 1007.7
20170922061535 83 298 0.0 1.0 0.00 0.26 0.23 89 1007.5
20170922061035 83 298 0.0 1.0 0.00 0.26 0.23 89 1007.5
20170922060535 83 298 0.0 2.0 0.00 0.26 0.23 89 1007.5
20170922060035 83 298 0.0 4.0 0.00 0.26 0.23 88 1007.7
20170922055535 83 299 1.0 5.0 0.00 0.26 0.23 87 1007.7
20170922055035 83 293 2.0 6.0 0.00 0.26 0.23 87 1007.7
20170922054535 83 298 5.0 7.0 0.00 0.26 0.23 86 1007.7
20170922054035 84 331 4.0 7.0 0.00 0.26 0.23 85 1007.7
20170922053535 84 27 0.0 13.0 0.00 0.26 0.23 86 1007.7
20170922053035 84 40 2.0 18.0 0.00 0.26 0.23 86 1007.5
20170922052535 84 28 9.0 21.0 0.00 0.26 0.23 86 1007.5
20170922052035 84 30 16.0 21.0 0.00 0.26 0.23 86 1007.5
20170922051535 85 49 15.0 21.0 0.00 0.26 0.23 85 1007.5
20170922051035 86 36 19.0 19.0 0.00 0.26 0.23 84 1007.5
20170922050535 87 49 10.0 12.0 0.00 0.26 0.23 83 1007.5
20170922050035 86 26 9.0 12.0 0.00 0.26 0.23 82 1007.3
20170922045535 87 36 9.0 12.0 0.00 0.26 0.23 82 1007.3
20170922045035 87 32 11.0 13.0 0.00 0.26 0.23 83 1007.3
20170922044535 87 30 6.0 13.0 0.00 0.26 0.23 84 1007.4
20170922044035 87 17 7.0 12.0 0.00 0.26 0.23 84 1007.4
20170922043535 87 30 11.0 12.0 0.00 0.26 0.23 84 1007.4
20170922043035 87 41 11.0 13.0 0.00 0.26 0.23 82 1007.4
20170922042535 87 39 10.0 13.0 0.00 0.26 0.23 84 1007.4
20170922042035 87 35 9.0 12.0 0.00 0.26 0.23 84 1007.4
20170922041535 87 42 10.0 13.0 0.00 0.26 0.23 83 1007.5
20170922041035 87 49 11.0 13.0 0.00 0.26 0.23 82 1007.5
20170922040535 87 53 10.0 13.0 0.00 0.26 0.23 82 1007.5
20170922040035 87 45 12.0 13.0 0.00 0.26 0.23 83 1007.6
20170922035535 87 40 10.0 13.0 0.00 0.26 0.23 82 1007.6
20170922035035 88 42 12.0 13.0 0.00 0.26 0.23 82 1007.6
20170922034535 87 44 11.0 13.0 0.00 0.26 0.23 82 1007.7
20170922034035 87 48 12.0 14.0 0.00 0.26 0.23 80 1007.7
20170922033535 87 45 10.0 14.0 0.00 0.26 0.23 82 1007.7
20170922033035 87 46 11.0 14.0 0.00 0.26 0.23 82 1007.8
20170922032535 87 54 10.0 14.0 0.00 0.26 0.23 82 1007.8
20170922032035 87 46 11.0 14.0 0.00 0.26 0.23 83 1007.8
20170922031535 87 40 11.0 14.0 0.00 0.26 0.23 83 1008.0
20170922031035 87 38 10.0 14.0 0.00 0.26 0.23 83 1008.0
20170922030535 87 41 11.0 14.0 0.00 0.26 0.23 84 1008.0
20170922030035 87 49 11.0 14.0 0.00 0.26 0.23 83 1008.2
20170922025535 87 49 9.0 14.0 0.00 0.26 0.23 82 1008.2
20170922025035 87 59 9.0 12.0 0.00 0.26 0.23 83 1008.2
20170922024535 87 48 10.0 12.0 0.00 0.26 0.23 82 1008.3
20170922024035 87 61 10.0 13.0 0.00 0.26 0.23 82 1008.3
20170922023535 87 38 11.0 13.0 0.00 0.26 0.23 83 1008.3
20170922023035 87 44 9.0 12.0 0.00 0.26 0.23 83 1008.6
20170922022535 87 45 9.0 11.0 0.00 0.26 0.23 83 1008.6
20170922022035 87 31 9.0 11.0 0.00 0.26 0.23 83 1008.6
20170922021535 87 43 10.0 12.0 0.00 0.26 0.23 84 1008.7
20170922021035 87 37 9.0 12.0 0.00 0.26 0.23 83 1008.7
20170922020535 87 35 7.0 12.0 0.00 0.26 0.23 84 1008.7
20170922020035 87 32 6.0 10.0 0.00 0.26 0.23 84 1008.8
20170922015535 87 43 9.0 10.0 0.00 0.26 0.23 84 1008.8
20170922015035 87 41 7.0 12.0 0.00 0.26 0.23 83 1008.8
20170922014535 87 31 5.0 12.0 0.00 0.26 0.23 84 1009.2
20170922014035 87 46 6.0 10.0 0.00 0.26 0.23 83 1009.2
20170922013535 87 35 6.0 10.0 0.00 0.26 0.23 83 1009.2
20170922013035 87 51 9.0 10.0 0.00 0.26 0.23 83 1009.4
20170922012535 87 42 6.0 9.0 0.00 0.26 0.23 84 1009.4
20170922012035 87 38 6.0 9.0 0.00 0.26 0.23 85 1009.4
20170922011535 87 42 6.0 9.0 0.00 0.26 0.23 84 1009.7
20170922011035 87 44 5.0 10.0 0.00 0.26 0.23 83 1009.7
20170922010535 87 42 7.0 10.0 0.00 0.26 0.23 84 1009.7
20170922010035 87 43 7.0 10.0 0.00 0.26 0.23 82 1009.8
20170922005535 87 61 6.0 10.0 0.00 0.26 0.23 84 1009.8
20170922005035 87 50 8.0 10.0 0.00 0.26 0.23 82 1009.8
20170922004535 87 36 9.0 10.0 0.00 0.26 0.23 83 1009.9
20170922004035 86 47 7.0 10.0 0.00 0.26 0.23 82 1009.9
20170922003535 87 56 8.0 10.0 0.00 0.26 0.23 83 1009.9
20170922003035 87 49 7.0 10.0 0.00 0.26 0.23 82 1010.2
20170922002535 87 39 6.0 10.0 0.00 0.26 0.23 82 1010.2
20170922002035 87 38 7.0 9.0 0.00 0.26 0.23 84 1010.2
20170922001535 87 45 7.0 7.0 0.00 0.26 0.23 82 1010.3
20170922001035 87 20 2.0 10.0 0.00 0.26 0.23 83 1010.3
20170922000535 86 30 5.0 10.0 0.00 0.26 0.23 82 1010.3
20170922000035 86 36 6.0 9.0 0.00 0.26 0.23 83 1010.3
20170921235535 86 39 6.0 7.0 0.00 0.26 0.23 83 1010.3
20170921235035 86 38 2.0 7.0 0.00 0.26 0.23 82 1010.3
20170921234535 86 29 5.0 6.0 0.00 0.26 0.23 83 1010.3
20170921234035 86 42 3.0 6.0 0.00 0.26 0.23 83 1010.3
20170921233535 86 36 2.0 5.0 0.00 0.26 0.23 84 1010.3
20170921233035 86 36 3.0 5.0 0.00 0.26 0.23 83 1010.3
20170921232535 86 36 2.0 5.0 0.00 0.26 0.23 83 1010.3
20170921232035 86 36 3.0 5.0 0.00 0.26 0.23 84 1010.3
20170921231535 86 36 1.0 4.0 0.00 0.26 0.23 84 1010.6
20170921231035 86 36 1.0 4.0 0.00 0.26 0.23 84 1010.6
20170921230535 86 17 1.0 3.0 0.00 0.26 0.23 83 1010.6
20170921230035 85 17 2.0 4.0 0.00 0.26 0.23 83 1010.5
20170921225535 85 17 0.0 4.0 0.00 0.26 0.23 84 1010.5
20170921225035 85 17 4.0 4.0 0.00 0.26 0.23 83 1010.5
20170921224535 85 17 0.0 2.0 0.00 0.26 0.23 84 1010.4
20170921224035 84 17 0.0 2.0 0.00 0.26 0.23 85 1010.4
20170921223535 84 17 2.0 2.0 0.00 0.26 0.23 86 1010.4
20170921223035 84 17 0.0 3.0 0.00 0.26 0.23 87 1010.3
20170921222535 83 17 0.0 3.0 0.00 0.26 0.23 88 1010.3
20170921222035 83 17 0.0 3.0 0.00 0.26 0.23 89 1010.3
20170921221535 82 303 0.0 2.0 0.00 0.26 0.23 90 1010.3
20170921221035 82 304 0.0 2.0 0.00 0.26 0.23 91 1010.3
20170921220535 81 304 0.0 1.0 0.01 0.26 0.23 92 1010.3
20170921220035 81 305 0.0 0.0 0.04 0.26 0.23 93 1010.3
20170921215535 81 299 0.0 0.0 0.09 0.26 0.23 93 1010.3
20170921215035 80 299 0.0 2.0 0.19 0.26 0.23 93 1010.2
20170921214535 80 298 0.0 3.0 0.20 0.26 0.23 94 1009.9
20170921214035 80 299 1.0 3.0 0.23 0.26 0.23 94 1009.9
20170921213535 80 298 2.0 3.0 0.23 0.26 0.23 94 1009.9
20170921213035 79 297 2.0 2.0 0.23 0.26 0.23 95 1010.0
20170921212535 79 184 0.0 4.0 0.23 0.27 0.23 94 1010.0
20170921212035 79 184 0.0 4.0 0.23 0.27 0.23 94 1010.0
20170921211535 79 58 0.0 3.0 0.23 0.27 0.23 95 1009.8
20170921211035 79 58 2.0 3.0 0.23 0.27 0.23 94 1009.8
20170921210535 78 58 0.0 11.0 0.22 0.26 0.22 94 1009.8
20170921210035 78 58 3.0 15.0 0.19 0.23 0.19 94 1010.1
20170921205535 79 22 1.0 19.0 0.14 0.18 0.14 94 1010.1
20170921205035 79 34 14.0 20.0 0.04 0.08 0.04 94 1010.1